createdAt,value
2019-05-13T00:00:28.128Z,7.78
2019-05-13T00:02:59.312Z,7.91
2019-05-13T00:05:30.309Z,7.81
2019-05-13T00:08:03.240Z,7.75
2019-05-13T00:10:35.028Z,7.96
2019-05-13T00:13:06.313Z,7.90
2019-05-13T00:15:37.566Z,7.96
2019-05-13T00:18:08.843Z,8.09
2019-05-13T00:20:39.940Z,7.99
2019-05-13T00:23:10.931Z,7.82
2019-05-13T00:25:44.204Z,7.97
2019-05-13T00:28:14.766Z,8.04
2019-05-13T00:30:46.107Z,8.05
2019-05-13T00:33:17.068Z,7.94
2019-05-13T00:35:48.078Z,7.66
2019-05-13T00:38:19.080Z,7.72
2019-05-13T00:40:50.129Z,7.71
2019-05-13T00:43:21.110Z,7.92
2019-05-13T00:45:53.400Z,7.59
2019-05-13T00:48:25.633Z,7.25
2019-05-13T00:50:56.685Z,7.16
2019-05-13T00:53:27.689Z,7.25
2019-05-13T00:55:58.703Z,7.37
2019-05-13T00:58:29.778Z,7.44
2019-05-13T01:01:00.795Z,6.90
2019-05-13T01:03:33.837Z,6.82
2019-05-13T01:06:04.553Z,6.79
2019-05-13T01:08:35.665Z,6.91
2019-05-13T01:11:06.697Z,7.15
2019-05-13T01:13:37.682Z,6.91
2019-05-13T01:16:08.670Z,7.22
2019-05-13T01:18:39.656Z,7.31
2019-05-13T01:21:10.700Z,7.37
2019-05-13T01:23:43.864Z,7.42
2019-05-13T01:26:14.727Z,7.42
2019-05-13T01:28:45.707Z,7.39
2019-05-13T01:31:16.676Z,7.07
2019-05-13T01:33:47.655Z,6.96
2019-05-13T01:36:18.646Z,7.25
2019-05-13T01:38:49.761Z,7.08
2019-05-13T01:41:20.810Z,7.34
2019-05-13T01:43:54.207Z,7.50
2019-05-13T01:46:24.585Z,7.47
2019-05-13T01:48:55.641Z,7.47
2019-05-13T01:51:26.703Z,7.25
2019-05-13T01:53:58.898Z,7.40
2019-05-13T01:56:30.018Z,7.50
2019-05-13T01:59:03.448Z,7.49
2019-05-13T02:01:33.916Z,7.32
2019-05-13T02:04:05.302Z,7.49
2019-05-13T02:06:36.313Z,7.57
2019-05-13T02:09:08.292Z,7.31
2019-05-13T02:11:39.363Z,7.36
2019-05-13T02:14:10.553Z,7.25
2019-05-13T02:16:44.378Z,7.54
2019-05-13T02:19:14.476Z,7.57
2019-05-13T02:21:45.603Z,7.46
2019-05-13T02:24:16.920Z,7.49
2019-05-13T02:26:47.954Z,7.38
2019-05-13T02:29:19.065Z,7.43
2019-05-13T02:31:55.236Z,7.71
2019-05-13T02:34:23.398Z,7.58
2019-05-13T02:36:55.405Z,7.37
2019-05-13T02:39:26.412Z,7.33
2019-05-13T02:41:57.567Z,7.50
2019-05-13T02:44:28.526Z,7.56
2019-05-13T02:47:03.002Z,7.74
2019-05-13T02:49:32.895Z,7.71
2019-05-13T02:52:04.119Z,7.62
2019-05-13T02:54:35.095Z,7.75
2019-05-13T02:57:06.345Z,7.92
2019-05-13T02:59:37.412Z,7.96
2019-05-13T03:02:08.465Z,7.93
2019-05-13T03:04:43.069Z,7.83
2019-05-13T03:07:12.178Z,7.88
2019-05-13T03:09:43.187Z,7.91
2019-05-13T03:12:15.420Z,7.73
2019-05-13T03:14:48.435Z,7.86
2019-05-13T03:17:34.594Z,7.97
2019-05-13T03:20:05.672Z,8.00
2019-05-13T03:22:36.833Z,7.96
2019-05-13T03:25:08.205Z,7.96
2019-05-13T03:27:42.530Z,7.74
2019-05-13T03:30:16.674Z,7.95
2019-05-13T03:32:52.832Z,7.58
2019-05-13T03:35:17.552Z,7.49
2019-05-13T03:37:48.735Z,7.53
2019-05-13T03:40:23.239Z,7.75
2019-05-13T03:42:53.903Z,7.68
2019-05-13T03:45:26.265Z,7.73
2019-05-13T03:48:03.698Z,7.77
2019-05-13T03:50:34.549Z,7.71
2019-05-13T03:53:05.121Z,7.71
2019-05-13T03:55:36.578Z,7.66
2019-05-13T03:58:10.171Z,7.82
2019-05-13T04:00:42.765Z,7.88
2019-05-13T04:03:14.430Z,7.04
2019-05-13T04:05:45.479Z,7.56
2019-05-13T04:08:16.849Z,7.43
2019-05-13T04:10:47.985Z,7.42
2019-05-13T04:13:22.993Z,7.64
2019-05-13T04:15:52.934Z,7.64
2019-05-13T04:18:24.495Z,7.13
2019-05-13T04:20:55.589Z,7.37
2019-05-13T04:23:26.966Z,7.51
2019-05-13T04:25:58.529Z,7.84
2019-05-13T04:28:32.881Z,7.42
2019-05-13T04:31:03.796Z,7.00
2019-05-13T04:33:35.220Z,7.13
2019-05-13T04:36:06.409Z,7.45
2019-05-13T04:38:37.889Z,7.71
2019-05-13T04:41:11.164Z,7.77
2019-05-13T04:43:43.457Z,7.47
2019-05-13T04:46:14.911Z,7.32
2019-05-13T04:48:45.964Z,7.82
2019-05-13T04:51:17.159Z,7.63
2019-05-13T04:53:53.331Z,7.62
2019-05-13T04:56:22.409Z,7.98
2019-05-13T04:58:53.947Z,8.03
2019-05-13T05:02:07.735Z,7.52
2019-05-13T05:04:52.837Z,7.53
2019-05-13T05:08:06.340Z,7.62
2019-05-13T05:11:05.182Z,7.94
2019-05-13T05:14:06.162Z,7.77
2019-05-13T05:17:39.171Z,8.06
2019-05-13T05:20:46.976Z,7.75
2019-05-13T05:24:02.695Z,7.80
2019-05-13T05:27:31.651Z,7.97
2019-05-13T05:31:02.340Z,8.32
2019-05-13T05:34:32.359Z,8.00
2019-05-13T05:38:01.542Z,8.00
2019-05-13T05:40:34.989Z,7.95
2019-05-13T05:43:07.643Z,7.98
2019-05-13T05:45:41.327Z,7.99
2019-05-13T05:48:16.915Z,8.46
2019-05-13T05:50:51.458Z,8.75
2019-05-13T05:53:24.510Z,8.77
2019-05-13T05:55:57.467Z,8.62
2019-05-13T05:58:31.517Z,8.59
2019-05-13T06:01:04.548Z,8.85
2019-05-13T06:03:37.684Z,8.58
2019-05-13T06:06:09.151Z,8.44
2019-05-13T06:08:41.343Z,8.45
2019-05-13T06:11:13.207Z,8.45
2019-05-13T06:13:44.283Z,8.68
2019-05-13T06:16:15.431Z,8.68
2019-05-13T06:18:46.651Z,8.72
2019-05-13T06:21:17.708Z,8.42
2019-05-13T06:23:48.780Z,8.64
2019-05-13T06:26:23.373Z,8.97
2019-05-13T06:28:52.717Z,8.94
2019-05-13T06:31:23.996Z,8.84
2019-05-13T06:33:55.211Z,9.17
2019-05-13T06:36:27.590Z,9.46
2019-05-13T06:38:58.722Z,9.05
2019-05-13T06:41:32.134Z,9.34
2019-05-13T06:44:02.831Z,9.59
2019-05-13T06:46:34.071Z,9.62
2019-05-13T06:49:05.204Z,10.42
2019-05-13T06:51:36.403Z,10.17
2019-05-13T06:54:11.120Z,10.21
2019-05-13T06:56:42.821Z,9.75
2019-05-13T06:59:14.217Z,9.51
2019-05-13T07:01:45.308Z,10.11
2019-05-13T07:04:16.543Z,11.34
2019-05-13T07:06:47.736Z,11.10
2019-05-13T07:09:21.356Z,12.08
2019-05-13T07:11:51.936Z,12.38
2019-05-13T07:14:23.173Z,12.02
2019-05-13T07:16:54.256Z,12.40
2019-05-13T07:19:25.392Z,12.22
2019-05-13T07:21:56.443Z,12.19
2019-05-13T07:24:27.477Z,13.82
2019-05-13T07:26:58.523Z,13.58
2019-05-13T07:29:32.144Z,14.18
2019-05-13T07:32:03.570Z,13.34
2019-05-13T07:34:34.666Z,15.27
2019-05-13T07:37:05.891Z,14.29
2019-05-13T07:39:38.781Z,13.95
2019-05-13T07:42:12.124Z,14.96
2019-05-13T07:44:42.701Z,14.44
2019-05-13T07:47:15.976Z,15.58
2019-05-13T07:49:46.756Z,14.76
2019-05-13T07:52:17.750Z,13.93
2019-05-13T07:54:48.814Z,13.91
2019-05-13T07:57:21.483Z,12.97
2019-05-13T07:59:52.628Z,13.23
2019-05-13T08:02:24.158Z,13.39
2019-05-13T08:04:55.458Z,12.42
2019-05-13T08:07:26.604Z,12.38
2019-05-13T08:10:00.229Z,12.29
2019-05-13T08:12:31.972Z,12.98
2019-05-13T08:15:03.487Z,12.48
2019-05-13T08:17:34.731Z,11.80
2019-05-13T08:20:06.542Z,11.96
2019-05-13T08:22:37.571Z,12.88
2019-05-13T08:25:09.028Z,12.78
2019-05-13T08:27:42.183Z,12.30
2019-05-13T08:30:18.086Z,11.32
2019-05-13T08:32:48.761Z,11.60
2019-05-13T08:35:22.415Z,11.43
2019-05-13T08:37:52.844Z,11.12
2019-05-13T08:40:24.008Z,11.41
2019-05-13T08:42:55.307Z,10.72
2019-05-13T08:45:26.668Z,10.66
2019-05-13T08:47:58.257Z,10.99
2019-05-13T08:50:32.207Z,11.99
2019-05-13T08:53:02.448Z,12.09
2019-05-13T08:55:33.585Z,12.55
2019-05-13T08:58:04.742Z,11.65
2019-05-13T09:00:53.084Z,12.01
2019-05-13T09:03:24.925Z,11.57
2019-05-13T09:05:56.393Z,11.19
2019-05-13T09:08:27.828Z,11.67
2019-05-13T09:11:01.399Z,12.13
2019-05-13T09:13:33.044Z,12.42
2019-05-13T09:16:04.447Z,12.53
2019-05-13T09:18:36.420Z,12.18
2019-05-13T09:21:07.435Z,12.06
2019-05-13T09:23:38.519Z,12.23
2019-05-13T09:26:11.637Z,12.73
2019-05-13T09:28:42.425Z,12.74
2019-05-13T09:31:13.426Z,12.39
2019-05-13T09:33:44.447Z,12.32
2019-05-13T09:36:15.518Z,12.50
2019-05-13T09:38:46.695Z,12.78
2019-05-13T09:41:17.845Z,12.84
2019-05-13T09:43:51.220Z,12.93
2019-05-13T09:46:22.586Z,12.95
2019-05-13T09:48:53.950Z,13.06
2019-05-13T09:51:25.160Z,13.15
2019-05-13T09:53:56.346Z,13.66
2019-05-13T09:56:27.432Z,12.80
2019-05-13T09:58:58.673Z,13.06
2019-05-13T10:01:32.006Z,12.52
2019-05-13T10:04:03.217Z,12.33
2019-05-13T10:06:35.654Z,12.25
2019-05-13T10:09:08.495Z,11.96
2019-05-13T10:11:39.560Z,11.81
2019-05-13T10:14:11.642Z,12.03
2019-05-13T10:16:43.184Z,11.77
2019-05-13T10:19:14.272Z,11.85
2019-05-13T10:21:45.522Z,12.11
2019-05-13T10:24:16.972Z,11.64
2019-05-13T10:26:51.348Z,11.80
2019-05-13T10:29:22.421Z,11.61
2019-05-13T10:31:54.422Z,11.22
2019-05-13T10:34:25.591Z,11.34
2019-05-13T10:36:56.955Z,11.36
2019-05-13T10:39:28.137Z,11.43
2019-05-13T10:41:59.332Z,11.34
2019-05-13T10:44:30.426Z,11.16
2019-05-13T10:47:02.468Z,11.16
2019-05-13T10:49:34.044Z,11.28
2019-05-13T10:52:05.193Z,11.42
2019-05-13T10:54:36.601Z,11.69
2019-05-13T10:57:07.795Z,11.66
2019-05-13T10:59:38.878Z,11.57
2019-05-13T11:02:13.279Z,11.46
2019-05-13T11:04:43.108Z,11.71
2019-05-13T11:07:14.271Z,11.39
2019-05-13T11:09:45.370Z,11.25
2019-05-13T11:12:16.443Z,11.59
2019-05-13T11:14:51.452Z,11.73
2019-05-13T11:17:25.657Z,11.65
2019-05-13T11:19:53.303Z,11.45
2019-05-13T11:22:24.294Z,11.40
2019-05-13T11:24:55.403Z,11.87
2019-05-13T11:27:26.491Z,11.64
2019-05-13T11:29:57.537Z,11.96
2019-05-13T11:32:31.583Z,11.57
2019-05-13T11:35:02.101Z,11.72
2019-05-13T11:37:34.382Z,11.53
2019-05-13T11:40:05.892Z,11.93
2019-05-13T11:42:37.024Z,11.99
2019-05-13T11:45:11.511Z,12.13
2019-05-13T11:47:41.706Z,12.31
2019-05-13T11:50:14.644Z,12.59
2019-05-13T11:52:45.748Z,12.84
2019-05-13T11:55:18.106Z,12.79
2019-05-13T11:57:49.186Z,12.67
2019-05-13T12:01:02.662Z,13.01
2019-05-13T12:03:33.628Z,12.94
2019-05-13T12:06:04.886Z,13.04
2019-05-13T12:08:35.985Z,12.48
2019-05-13T12:11:07.013Z,12.25
2019-05-13T12:13:38.189Z,12.05
2019-05-13T12:16:12.844Z,11.77
2019-05-13T12:18:43.813Z,11.74
2019-05-13T12:21:15.392Z,11.77
2019-05-13T12:23:46.867Z,12.13
2019-05-13T12:26:18.052Z,12.35
2019-05-13T12:28:53.217Z,12.43
2019-05-13T12:31:22.432Z,12.65
2019-05-13T12:33:53.476Z,12.83
2019-05-13T12:36:24.685Z,12.79
2019-05-13T12:38:56.793Z,13.08
2019-05-13T12:41:27.916Z,12.96
2019-05-13T12:44:01.607Z,12.76
2019-05-13T12:46:31.846Z,12.72
2019-05-13T12:49:04.045Z,12.90
2019-05-13T12:51:35.421Z,13.01
2019-05-13T12:54:06.771Z,12.73
2019-05-13T12:56:37.924Z,12.45
2019-05-13T12:59:12.893Z,12.42
2019-05-13T13:01:41.842Z,12.55
2019-05-13T13:04:13.263Z,13.16
2019-05-13T13:06:45.681Z,13.00
2019-05-13T13:09:17.136Z,12.36
2019-05-13T13:11:53.954Z,12.56
2019-05-13T13:14:22.603Z,12.74
2019-05-13T13:16:54.350Z,12.48
2019-05-13T13:19:25.674Z,12.75
2019-05-13T13:22:03.298Z,12.94
2019-05-13T13:24:31.743Z,12.88
2019-05-13T13:27:02.429Z,12.90
2019-05-13T13:29:34.196Z,13.07
2019-05-13T13:32:05.490Z,12.70
2019-05-13T13:34:36.698Z,13.01
2019-05-13T13:37:07.707Z,12.64
2019-05-13T13:39:42.251Z,12.96
2019-05-13T13:42:13.162Z,12.82
2019-05-13T13:44:44.756Z,12.83
2019-05-13T13:47:15.878Z,12.91
2019-05-13T13:49:47.163Z,12.20
2019-05-13T13:52:18.710Z,12.62
2019-05-13T13:54:58.921Z,12.35
2019-05-13T13:57:25.755Z,12.50
2019-05-13T14:00:20.948Z,12.54
2019-05-13T14:02:28.279Z,12.63
2019-05-13T14:05:04.923Z,12.49
2019-05-13T14:07:37.830Z,12.48
2019-05-13T14:10:07.129Z,12.96
2019-05-13T14:12:38.454Z,13.25
2019-05-13T14:15:09.749Z,13.44
2019-05-13T14:17:41.584Z,12.79
2019-05-13T14:20:13.410Z,12.83
2019-05-13T14:22:44.602Z,12.64
2019-05-13T14:25:16.178Z,12.57
2019-05-13T14:27:47.275Z,12.74
2019-05-13T14:30:18.814Z,12.78
2019-05-13T14:32:51.938Z,12.92
2019-05-13T14:35:22.968Z,13.07
2019-05-13T14:37:54.190Z,13.41
2019-05-13T14:40:25.423Z,13.59
2019-05-13T14:42:56.485Z,13.19
2019-05-13T14:45:27.950Z,13.05
2019-05-13T14:47:59.089Z,13.37
2019-05-13T14:50:31.934Z,13.00
2019-05-13T14:53:03.056Z,12.73
2019-05-13T14:55:34.051Z,12.76
2019-05-13T14:58:08.784Z,12.59
2019-05-13T15:00:42.139Z,12.46
2019-05-13T15:03:13.251Z,12.65
2019-05-13T15:05:44.351Z,12.49
2019-05-13T15:08:15.438Z,12.56
2019-05-13T15:10:46.612Z,12.65
2019-05-13T15:13:17.763Z,12.97
2019-05-13T15:15:51.507Z,13.00
2019-05-13T15:18:22.441Z,12.79
2019-05-13T15:20:53.694Z,12.80
2019-05-13T15:23:25.335Z,12.84
2019-05-13T15:26:44.654Z,12.62
2019-05-13T15:29:15.915Z,12.95
2019-05-13T15:31:46.971Z,12.85
2019-05-13T15:34:18.525Z,12.82
2019-05-13T15:36:50.945Z,12.84
2019-05-13T15:39:22.715Z,13.00
2019-05-13T15:41:53.854Z,13.04
2019-05-13T15:44:24.994Z,12.77
2019-05-13T15:46:59.115Z,12.48
2019-05-13T15:49:29.331Z,12.37
2019-05-13T15:52:01.909Z,12.51
2019-05-13T15:54:34.238Z,12.56
2019-05-13T15:57:05.392Z,12.45
2019-05-13T15:59:36.630Z,12.21
2019-05-13T16:02:07.811Z,12.50
2019-05-13T16:04:49.964Z,12.67
2019-05-13T16:07:12.433Z,12.81
2019-05-13T16:09:43.655Z,13.22
2019-05-13T16:12:14.799Z,13.18
2019-05-13T16:14:45.794Z,13.20
2019-05-13T16:17:16.948Z,13.33
2019-05-13T16:19:48.121Z,12.80
2019-05-13T16:22:19.202Z,12.86
2019-05-13T16:24:52.121Z,12.68
2019-05-13T16:27:24.436Z,12.50
2019-05-13T16:29:55.458Z,12.35
2019-05-13T16:32:26.572Z,12.49
2019-05-13T16:34:57.684Z,12.46
2019-05-13T16:37:31.234Z,12.46
2019-05-13T16:40:01.587Z,12.42
2019-05-13T16:45:18.409Z,12.38
2019-05-13T16:48:12.337Z,12.49
2019-05-13T16:50:43.610Z,12.24
2019-05-13T16:53:14.716Z,12.42
2019-05-13T16:55:45.798Z,12.25
2019-05-13T16:58:16.993Z,12.34
2019-05-13T17:00:48.636Z,12.45
2019-05-13T17:03:21.191Z,12.59
2019-05-13T17:05:52.571Z,12.80
2019-05-13T17:08:23.683Z,12.77
2019-05-13T17:10:54.848Z,12.89
2019-05-13T17:13:26.103Z,12.34
2019-05-13T17:15:57.225Z,12.75
2019-05-13T17:18:28.420Z,13.14
2019-05-13T17:21:01.470Z,12.95
2019-05-13T17:23:32.896Z,13.05
2019-05-13T17:26:04.096Z,12.83
2019-05-13T17:28:35.123Z,12.87
2019-05-13T17:31:06.262Z,12.70
2019-05-13T17:33:37.594Z,12.68
2019-05-13T17:36:08.641Z,12.44
2019-05-13T17:38:39.916Z,12.52
2019-05-13T17:41:12.192Z,12.44
2019-05-13T17:43:43.374Z,12.31
2019-05-13T17:46:14.533Z,11.99
2019-05-13T17:48:45.594Z,12.12
2019-05-13T17:51:16.790Z,12.25
2019-05-13T17:53:47.921Z,12.20
2019-05-13T17:56:18.983Z,12.24
2019-05-13T17:58:49.975Z,12.04
2019-05-13T18:01:21.294Z,12.45
2019-05-13T18:03:52.322Z,12.38
2019-05-13T18:06:23.345Z,12.22
2019-05-13T18:08:54.563Z,12.44
2019-05-13T18:11:25.665Z,12.29
2019-05-13T18:13:56.626Z,12.40
2019-05-13T18:16:27.716Z,12.38
2019-05-13T18:18:58.890Z,11.87
2019-05-13T18:21:31.982Z,11.74
2019-05-13T18:24:02.767Z,11.66
2019-05-13T18:26:34.164Z,11.66
2019-05-13T18:29:05.261Z,11.63
2019-05-13T18:31:36.418Z,11.67
2019-05-13T18:34:07.610Z,11.73
2019-05-13T18:36:38.763Z,11.74
2019-05-13T18:39:12.397Z,11.51
2019-05-13T18:41:43.336Z,11.62
2019-05-13T18:44:14.533Z,11.55
2019-05-13T18:46:45.630Z,11.67
2019-05-13T18:49:16.830Z,11.50
2019-05-13T18:51:48.048Z,11.60
2019-05-13T18:54:19.055Z,11.50
2019-05-13T18:56:52.190Z,11.52
2019-05-13T18:59:23.126Z,11.29
2019-05-13T19:01:54.150Z,11.45
2019-05-13T19:04:25.117Z,11.55
2019-05-13T19:06:56.125Z,11.32
2019-05-13T19:09:27.115Z,11.42
2019-05-13T19:11:58.211Z,11.39
2019-05-13T19:14:31.603Z,11.31
2019-05-13T19:17:02.113Z,11.26
2019-05-13T19:19:33.109Z,11.26
2019-05-13T19:22:04.193Z,11.24
2019-05-13T19:24:35.178Z,11.25
2019-05-13T19:27:06.548Z,11.24
2019-05-13T19:29:37.520Z,11.29
2019-05-13T19:32:08.690Z,11.27
2019-05-13T19:34:42.138Z,10.99
2019-05-13T19:37:12.872Z,11.14
2019-05-13T19:39:43.922Z,11.13
2019-05-13T19:42:15.063Z,10.76
2019-05-13T19:44:46.314Z,10.24
2019-05-13T19:47:17.353Z,10.20
2019-05-13T19:49:48.324Z,10.64
2019-05-13T19:52:21.390Z,10.44
2019-05-13T19:54:52.450Z,10.52
2019-05-13T19:57:24.581Z,10.67
2019-05-13T19:59:55.585Z,10.66
2019-05-13T20:02:26.571Z,10.33
2019-05-13T20:04:57.549Z,10.25
2019-05-13T20:07:28.530Z,9.73
2019-05-13T20:10:02.604Z,10.01
2019-05-13T20:12:32.436Z,10.20
2019-05-13T20:15:03.910Z,10.28
2019-05-13T20:17:35.201Z,10.08
2019-05-13T20:20:06.978Z,10.21
2019-05-13T20:22:41.952Z,10.18
2019-05-13T20:25:13.155Z,10.11
2019-05-13T20:27:45.438Z,9.96
2019-05-13T20:30:16.793Z,9.78
2019-05-13T20:32:47.844Z,9.95
2019-05-13T20:35:18.919Z,9.90
2019-05-13T20:37:51.561Z,9.77
2019-05-13T20:40:22.663Z,9.42
2019-05-13T20:42:53.642Z,9.40
2019-05-13T20:45:24.720Z,9.63
2019-05-13T20:47:55.724Z,9.65
2019-05-13T20:50:26.715Z,9.72
2019-05-13T20:52:57.762Z,9.63
2019-05-13T20:55:28.775Z,8.96
2019-05-13T20:58:01.448Z,8.92
2019-05-13T21:00:32.706Z,8.49
2019-05-13T21:03:03.873Z,8.80
2019-05-13T21:05:36.545Z,8.94
2019-05-13T21:08:07.547Z,9.23
2019-05-13T21:10:38.639Z,9.27
2019-05-13T21:13:12.097Z,9.45
2019-05-13T21:15:42.708Z,9.47
2019-05-13T21:18:14.770Z,8.90
2019-05-13T21:20:46.120Z,9.20
2019-05-13T21:23:17.493Z,9.51
2019-05-13T21:25:48.459Z,9.32
2019-05-13T21:28:22.160Z,9.22
2019-05-13T21:30:54.915Z,9.23
2019-05-13T21:33:25.943Z,9.07
2019-05-13T21:35:56.917Z,9.21
2019-05-13T21:38:28.000Z,8.95
2019-05-13T21:40:58.966Z,9.02
2019-05-13T21:43:32.162Z,9.08
2019-05-13T21:46:02.665Z,9.06
2019-05-13T21:48:33.769Z,9.05
2019-05-13T21:51:04.811Z,9.13
2019-05-13T21:53:35.794Z,8.87
2019-05-13T21:56:06.763Z,8.99
2019-05-13T21:58:37.926Z,9.04
2019-05-13T22:01:08.909Z,8.91
2019-05-13T22:03:41.998Z,9.13
2019-05-13T22:06:12.851Z,9.29
2019-05-13T22:08:43.857Z,9.21
2019-05-13T22:11:15.147Z,9.12
2019-05-13T22:13:46.121Z,9.35
2019-05-13T22:16:17.147Z,9.32
2019-05-13T22:18:48.169Z,9.57
2019-05-13T22:21:19.217Z,9.50
2019-05-13T22:23:51.773Z,9.66
2019-05-13T22:26:23.994Z,9.67
2019-05-13T22:28:54.985Z,9.58
2019-05-13T22:31:26.079Z,9.52
2019-05-13T22:33:57.072Z,9.35
2019-05-13T22:36:28.181Z,9.38
2019-05-13T22:38:59.209Z,9.15
2019-05-13T22:41:31.299Z,9.08
2019-05-13T22:44:02.564Z,8.81
2019-05-13T22:46:33.601Z,8.75
2019-05-13T22:49:04.617Z,8.86
2019-05-13T22:51:35.633Z,8.81
2019-05-13T22:54:06.725Z,8.88
2019-05-13T22:56:37.996Z,8.61
2019-05-13T22:59:08.976Z,8.91
2019-05-13T23:01:41.842Z,8.64
2019-05-13T23:04:13.159Z,8.78
2019-05-13T23:06:44.139Z,8.62
2019-05-13T23:09:15.110Z,8.53
2019-05-13T23:11:46.066Z,8.70
2019-05-13T23:14:17.050Z,8.43
2019-05-13T23:16:48.056Z,8.28
2019-05-13T23:19:21.528Z,8.42
2019-05-13T23:21:52.090Z,8.42
2019-05-13T23:24:23.330Z,8.39
2019-05-13T23:26:54.458Z,8.38
2019-05-13T23:29:25.452Z,8.59
2019-05-13T23:31:56.442Z,8.51
2019-05-13T23:34:27.443Z,8.45
2019-05-13T23:36:58.453Z,8.44
2019-05-13T23:39:29.566Z,8.35
2019-05-13T23:42:01.392Z,8.32
2019-05-13T23:44:32.614Z,8.32
2019-05-13T23:47:04.964Z,8.46
2019-05-13T23:49:35.987Z,8.32
2019-05-13T23:52:08.093Z,8.17
2019-05-13T23:54:39.173Z,8.00
2019-05-13T23:57:11.796Z,7.64
2019-05-13T23:59:44.322Z,7.86
